sensor_id;sensor_type;location;lat;lon;timestamp;P1;durP1;ratioP1;P2;durP2;ratioP2
21170;SDS011;10743;52.160;20.910;2023-12-04T00:01:22;37.60;;;14.57;;
21170;SDS011;10743;52.160;20.910;2023-12-04T00:03:49;29.07;;;12.53;;
21170;SDS011;10743;52.160;20.910;2023-12-04T00:06:16;25.70;;;12.17;;
21170;SDS011;10743;52.160;20.910;2023-12-04T00:08:43;33.67;;;13.57;;
21170;SDS011;10743;52.160;20.910;2023-12-04T00:11:10;31.07;;;12.13;;
21170;SDS011;10743;52.160;20.910;2023-12-04T00:13:37;33.97;;;12.33;;
21170;SDS011;10743;52.160;20.910;2023-12-04T00:16:05;31.30;;;13.57;;
21170;SDS011;10743;52.160;20.910;2023-12-04T00:18:32;28.80;;;12.30;;
21170;SDS011;10743;52.160;20.910;2023-12-04T00:20:59;24.03;;;10.77;;
21170;SDS011;10743;52.160;20.910;2023-12-04T00:23:26;27.80;;;11.27;;
21170;SDS011;10743;52.160;20.910;2023-12-04T00:25:54;27.97;;;12.03;;
21170;SDS011;10743;52.160;20.910;2023-12-04T00:28:22;27.07;;;13.57;;
21170;SDS011;10743;52.160;20.910;2023-12-04T00:30:49;27.57;;;12.03;;
21170;SDS011;10743;52.160;20.910;2023-12-04T00:33:16;26.00;;;11.53;;
21170;SDS011;10743;52.160;20.910;2023-12-04T00:35:43;24.70;;;10.93;;
21170;SDS011;10743;52.160;20.910;2023-12-04T00:38:10;27.80;;;11.20;;
21170;SDS011;10743;52.160;20.910;2023-12-04T00:40:37;28.17;;;11.77;;
21170;SDS011;10743;52.160;20.910;2023-12-04T00:43:04;24.67;;;10.13;;
21170;SDS011;10743;52.160;20.910;2023-12-04T00:45:31;24.50;;;11.60;;
21170;SDS011;10743;52.160;20.910;2023-12-04T00:47:58;27.33;;;11.63;;
21170;SDS011;10743;52.160;20.910;2023-12-04T00:50:25;26.57;;;12.10;;
21170;SDS011;10743;52.160;20.910;2023-12-04T00:52:53;24.53;;;11.27;;
21170;SDS011;10743;52.160;20.910;2023-12-04T00:55:20;28.00;;;11.40;;
21170;SDS011;10743;52.160;20.910;2023-12-04T00:57:47;33.07;;;13.10;;
21170;SDS011;10743;52.160;20.910;2023-12-04T01:00:14;32.23;;;13.97;;
21170;SDS011;10743;52.160;20.910;2023-12-04T01:02:42;29.70;;;12.73;;
21170;SDS011;10743;52.160;20.910;2023-12-04T01:05:09;27.37;;;12.27;;
21170;SDS011;10743;52.160;20.910;2023-12-04T01:07:36;23.43;;;11.23;;
21170;SDS011;10743;52.160;20.910;2023-12-04T01:10:03;24.53;;;12.30;;
21170;SDS011;10743;52.160;20.910;2023-12-04T01:12:31;24.10;;;11.73;;
21170;SDS011;10743;52.160;20.910;2023-12-04T01:14:58;29.17;;;10.70;;
21170;SDS011;10743;52.160;20.910;2023-12-04T01:17:25;28.00;;;13.07;;
21170;SDS011;10743;52.160;20.910;2023-12-04T01:19:52;28.80;;;12.43;;
21170;SDS011;10743;52.160;20.910;2023-12-04T01:22:19;24.97;;;12.23;;
21170;SDS011;10743;52.160;20.910;2023-12-04T01:24:47;21.27;;;11.50;;
21170;SDS011;10743;52.160;20.910;2023-12-04T01:27:14;24.63;;;10.70;;
21170;SDS011;10743;52.160;20.910;2023-12-04T01:29:41;26.33;;;10.70;;
21170;SDS011;10743;52.160;20.910;2023-12-04T01:32:08;31.60;;;13.50;;
21170;SDS011;10743;52.160;20.910;2023-12-04T01:34:35;32.13;;;13.47;;
21170;SDS011;10743;52.160;20.910;2023-12-04T01:37:02;27.77;;;12.47;;
21170;SDS011;10743;52.160;20.910;2023-12-04T01:39:29;23.87;;;12.47;;
21170;SDS011;10743;52.160;20.910;2023-12-04T01:41:57;29.20;;;12.63;;
21170;SDS011;10743;52.160;20.910;2023-12-04T01:44:24;27.70;;;10.60;;
21170;SDS011;10743;52.160;20.910;2023-12-04T01:46:51;20.97;;;9.67;;
21170;SDS011;10743;52.160;20.910;2023-12-04T01:49:18;17.23;;;8.77;;
21170;SDS011;10743;52.160;20.910;2023-12-04T01:51:45;18.33;;;9.10;;
21170;SDS011;10743;52.160;20.910;2023-12-04T01:54:13;19.80;;;9.30;;
21170;SDS011;10743;52.160;20.910;2023-12-04T01:56:40;22.90;;;9.43;;
21170;SDS011;10743;52.160;20.910;2023-12-04T01:59:07;16.80;;;8.00;;
21170;SDS011;10743;52.160;20.910;2023-12-04T02:01:34;19.10;;;8.60;;
21170;SDS011;10743;52.160;20.910;2023-12-04T02:04:03;24.47;;;9.70;;
21170;SDS011;10743;52.160;20.910;2023-12-04T02:06:31;17.37;;;7.53;;
21170;SDS011;10743;52.160;20.910;2023-12-04T02:08:58;20.33;;;9.03;;
21170;SDS011;10743;52.160;20.910;2023-12-04T02:11:25;19.23;;;9.33;;
21170;SDS011;10743;52.160;20.910;2023-12-04T02:13:54;15.97;;;8.00;;
21170;SDS011;10743;52.160;20.910;2023-12-04T02:16:21;16.63;;;8.27;;
21170;SDS011;10743;52.160;20.910;2023-12-04T02:18:52;22.13;;;8.23;;
21170;SDS011;10743;52.160;20.910;2023-12-04T02:21:20;23.10;;;9.03;;
21170;SDS011;10743;52.160;20.910;2023-12-04T02:23:51;17.43;;;8.30;;
21170;SDS011;10743;52.160;20.910;2023-12-04T02:26:22;16.70;;;8.70;;
21170;SDS011;10743;52.160;20.910;2023-12-04T02:29:07;14.40;;;7.47;;
21170;SDS011;10743;52.160;20.910;2023-12-04T02:31:41;16.73;;;7.20;;
21170;SDS011;10743;52.160;20.910;2023-12-04T02:34:08;24.43;;;11.90;;
21170;SDS011;10743;52.160;20.910;2023-12-04T02:36:39;22.70;;;9.80;;
21170;SDS011;10743;52.160;20.910;2023-12-04T02:39:08;24.37;;;9.50;;
21170;SDS011;10743;52.160;20.910;2023-12-04T02:41:35;32.77;;;10.17;;
21170;SDS011;10743;52.160;20.910;2023-12-04T02:44:03;23.57;;;8.97;;
21170;SDS011;10743;52.160;20.910;2023-12-04T02:46:30;22.77;;;9.67;;
21170;SDS011;10743;52.160;20.910;2023-12-04T02:48:57;22.03;;;10.17;;
21170;SDS011;10743;52.160;20.910;2023-12-04T02:51:24;23.40;;;9.70;;
21170;SDS011;10743;52.160;20.910;2023-12-04T02:53:53;18.20;;;9.03;;
21170;SDS011;10743;52.160;20.910;2023-12-04T02:56:20;24.20;;;12.03;;
21170;SDS011;10743;52.160;20.910;2023-12-04T02:58:47;20.37;;;10.33;;
21170;SDS011;10743;52.160;20.910;2023-12-04T03:01:14;18.30;;;8.00;;
21170;SDS011;10743;52.160;20.910;2023-12-04T03:03:41;22.40;;;9.03;;
21170;SDS011;10743;52.160;20.910;2023-12-04T03:06:08;18.03;;;8.60;;
21170;SDS011;10743;52.160;20.910;2023-12-04T03:08:35;20.50;;;9.50;;
21170;SDS011;10743;52.160;20.910;2023-12-04T03:11:02;18.00;;;9.37;;
21170;SDS011;10743;52.160;20.910;2023-12-04T03:13:29;19.37;;;8.73;;
21170;SDS011;10743;52.160;20.910;2023-12-04T03:15:58;14.97;;;8.77;;
21170;SDS011;10743;52.160;20.910;2023-12-04T03:18:25;21.00;;;8.83;;
21170;SDS011;10743;52.160;20.910;2023-12-04T03:20:55;16.60;;;8.07;;
21170;SDS011;10743;52.160;20.910;2023-12-04T03:23:22;20.00;;;8.40;;
21170;SDS011;10743;52.160;20.910;2023-12-04T03:25:49;21.00;;;8.57;;
21170;SDS011;10743;52.160;20.910;2023-12-04T03:28:16;23.33;;;7.93;;
21170;SDS011;10743;52.160;20.910;2023-12-04T03:30:43;19.07;;;9.20;;
21170;SDS011;10743;52.160;20.910;2023-12-04T03:33:12;18.63;;;8.47;;
21170;SDS011;10743;52.160;20.910;2023-12-04T03:35:39;18.27;;;8.10;;
21170;SDS011;10743;52.160;20.910;2023-12-04T03:38:06;16.37;;;8.47;;
21170;SDS011;10743;52.160;20.910;2023-12-04T03:40:33;20.17;;;8.00;;
21170;SDS011;10743;52.160;20.910;2023-12-04T03:43:00;13.33;;;7.10;;
21170;SDS011;10743;52.160;20.910;2023-12-04T03:45:27;17.93;;;8.23;;
21170;SDS011;10743;52.160;20.910;2023-12-04T03:47:54;21.53;;;9.53;;
21170;SDS011;10743;52.160;20.910;2023-12-04T03:50:21;18.70;;;8.30;;
21170;SDS011;10743;52.160;20.910;2023-12-04T03:52:49;17.53;;;8.67;;
21170;SDS011;10743;52.160;20.910;2023-12-04T03:55:16;16.70;;;8.00;;
21170;SDS011;10743;52.160;20.910;2023-12-04T03:57:45;19.03;;;9.17;;
21170;SDS011;10743;52.160;20.910;2023-12-04T04:00:12;20.00;;;8.83;;
21170;SDS011;10743;52.160;20.910;2023-12-04T04:02:41;21.20;;;8.67;;
21170;SDS011;10743;52.160;20.910;2023-12-04T04:05:09;21.47;;;9.03;;
21170;SDS011;10743;52.160;20.910;2023-12-04T04:07:37;27.73;;;8.60;;
21170;SDS011;10743;52.160;20.910;2023-12-04T04:10:04;16.40;;;7.60;;
21170;SDS011;10743;52.160;20.910;2023-12-04T04:12:31;18.23;;;8.07;;
21170;SDS011;10743;52.160;20.910;2023-12-04T04:14:59;22.83;;;8.70;;
21170;SDS011;10743;52.160;20.910;2023-12-04T04:17:26;19.07;;;7.73;;
21170;SDS011;10743;52.160;20.910;2023-12-04T04:19:53;23.10;;;8.23;;
21170;SDS011;10743;52.160;20.910;2023-12-04T04:22:21;19.53;;;9.27;;
21170;SDS011;10743;52.160;20.910;2023-12-04T04:24:48;16.73;;;8.07;;
21170;SDS011;10743;52.160;20.910;2023-12-04T04:27:16;17.37;;;8.17;;
21170;SDS011;10743;52.160;20.910;2023-12-04T04:29:43;19.53;;;7.80;;
21170;SDS011;10743;52.160;20.910;2023-12-04T04:32:10;20.17;;;9.07;;
21170;SDS011;10743;52.160;20.910;2023-12-04T04:34:40;16.93;;;8.20;;
21170;SDS011;10743;52.160;20.910;2023-12-04T04:37:07;22.23;;;9.00;;
21170;SDS011;10743;52.160;20.910;2023-12-04T04:39:34;20.17;;;9.30;;
21170;SDS011;10743;52.160;20.910;2023-12-04T04:42:01;23.87;;;10.70;;
21170;SDS011;10743;52.160;20.910;2023-12-04T04:44:28;24.17;;;11.37;;
21170;SDS011;10743;52.160;20.910;2023-12-04T04:46:55;21.23;;;8.80;;
21170;SDS011;10743;52.160;20.910;2023-12-04T04:49:22;21.33;;;8.63;;
21170;SDS011;10743;52.160;20.910;2023-12-04T04:51:49;24.40;;;9.23;;
21170;SDS011;10743;52.160;20.910;2023-12-04T04:54:17;23.40;;;8.67;;
21170;SDS011;10743;52.160;20.910;2023-12-04T04:56:44;19.10;;;7.93;;
21170;SDS011;10743;52.160;20.910;2023-12-04T04:59:11;20.47;;;8.13;;
21170;SDS011;10743;52.160;20.910;2023-12-04T05:01:38;22.90;;;9.10;;
21170;SDS011;10743;52.160;20.910;2023-12-04T05:04:05;20.50;;;8.73;;
21170;SDS011;10743;52.160;20.910;2023-12-04T05:06:32;22.30;;;9.90;;
21170;SDS011;10743;52.160;20.910;2023-12-04T05:08:59;19.10;;;8.50;;
21170;SDS011;10743;52.160;20.910;2023-12-04T05:11:26;23.17;;;9.27;;
21170;SDS011;10743;52.160;20.910;2023-12-04T05:13:53;18.70;;;8.97;;
21170;SDS011;10743;52.160;20.910;2023-12-04T05:16:20;24.73;;;9.57;;
21170;SDS011;10743;52.160;20.910;2023-12-04T05:18:47;21.27;;;8.90;;
21170;SDS011;10743;52.160;20.910;2023-12-04T05:21:14;20.63;;;8.67;;
21170;SDS011;10743;52.160;20.910;2023-12-04T05:23:41;22.67;;;9.50;;
21170;SDS011;10743;52.160;20.910;2023-12-04T05:26:08;16.20;;;7.37;;
21170;SDS011;10743;52.160;20.910;2023-12-04T05:28:35;24.87;;;9.30;;
21170;SDS011;10743;52.160;20.910;2023-12-04T05:31:02;19.30;;;9.67;;
21170;SDS011;10743;52.160;20.910;2023-12-04T05:33:31;21.70;;;9.23;;
21170;SDS011;10743;52.160;20.910;2023-12-04T05:35:59;22.43;;;9.23;;
21170;SDS011;10743;52.160;20.910;2023-12-04T05:38:26;31.10;;;12.63;;
21170;SDS011;10743;52.160;20.910;2023-12-04T05:40:53;31.73;;;12.60;;
21170;SDS011;10743;52.160;20.910;2023-12-04T05:43:21;23.77;;;9.20;;
21170;SDS011;10743;52.160;20.910;2023-12-04T05:45:48;25.73;;;10.20;;
21170;SDS011;10743;52.160;20.910;2023-12-04T05:48:18;28.03;;;10.70;;
21170;SDS011;10743;52.160;20.910;2023-12-04T05:50:45;21.53;;;8.90;;
21170;SDS011;10743;52.160;20.910;2023-12-04T05:53:12;26.30;;;9.87;;
21170;SDS011;10743;52.160;20.910;2023-12-04T05:55:39;26.73;;;11.97;;
21170;SDS011;10743;52.160;20.910;2023-12-04T05:58:06;19.33;;;10.23;;
21170;SDS011;10743;52.160;20.910;2023-12-04T06:00:33;28.13;;;9.80;;
21170;SDS011;10743;52.160;20.910;2023-12-04T06:03:00;18.23;;;9.73;;
21170;SDS011;10743;52.160;20.910;2023-12-04T06:05:28;28.03;;;10.30;;
21170;SDS011;10743;52.160;20.910;2023-12-04T06:07:55;28.70;;;10.63;;
21170;SDS011;10743;52.160;20.910;2023-12-04T06:10:24;31.30;;;10.53;;
21170;SDS011;10743;52.160;20.910;2023-12-04T06:12:51;24.40;;;9.90;;
21170;SDS011;10743;52.160;20.910;2023-12-04T06:15:18;21.87;;;9.83;;
21170;SDS011;10743;52.160;20.910;2023-12-04T06:17:45;19.27;;;8.60;;
21170;SDS011;10743;52.160;20.910;2023-12-04T06:20:12;28.10;;;9.50;;
21170;SDS011;10743;52.160;20.910;2023-12-04T06:22:39;23.13;;;10.07;;
21170;SDS011;10743;52.160;20.910;2023-12-04T06:25:07;21.53;;;9.73;;
21170;SDS011;10743;52.160;20.910;2023-12-04T06:27:35;26.27;;;10.50;;
21170;SDS011;10743;52.160;20.910;2023-12-04T06:30:02;23.77;;;10.30;;
21170;SDS011;10743;52.160;20.910;2023-12-04T06:32:30;24.13;;;10.57;;
21170;SDS011;10743;52.160;20.910;2023-12-04T06:34:57;24.63;;;9.57;;
21170;SDS011;10743;52.160;20.910;2023-12-04T06:37:24;19.17;;;8.90;;
21170;SDS011;10743;52.160;20.910;2023-12-04T06:39:52;31.33;;;11.50;;
21170;SDS011;10743;52.160;20.910;2023-12-04T06:42:20;24.93;;;11.23;;
21170;SDS011;10743;52.160;20.910;2023-12-04T06:44:48;28.93;;;11.40;;
21170;SDS011;10743;52.160;20.910;2023-12-04T06:47:16;30.70;;;10.97;;
21170;SDS011;10743;52.160;20.910;2023-12-04T06:49:46;33.53;;;12.57;;
21170;SDS011;10743;52.160;20.910;2023-12-04T06:52:13;33.33;;;12.07;;
21170;SDS011;10743;52.160;20.910;2023-12-04T06:54:40;24.60;;;9.73;;
21170;SDS011;10743;52.160;20.910;2023-12-04T06:57:07;23.67;;;9.97;;
21170;SDS011;10743;52.160;20.910;2023-12-04T06:59:34;27.30;;;10.87;;
21170;SDS011;10743;52.160;20.910;2023-12-04T07:02:01;25.67;;;11.23;;
21170;SDS011;10743;52.160;20.910;2023-12-04T07:04:28;26.00;;;10.63;;
21170;SDS011;10743;52.160;20.910;2023-12-04T07:06:55;25.23;;;11.10;;
21170;SDS011;10743;52.160;20.910;2023-12-04T07:09:24;27.97;;;11.13;;
21170;SDS011;10743;52.160;20.910;2023-12-04T07:11:51;25.17;;;10.53;;
21170;SDS011;10743;52.160;20.910;2023-12-04T07:14:18;22.20;;;10.53;;
21170;SDS011;10743;52.160;20.910;2023-12-04T07:16:45;22.60;;;10.37;;
21170;SDS011;10743;52.160;20.910;2023-12-04T07:19:12;25.17;;;11.00;;
21170;SDS011;10743;52.160;20.910;2023-12-04T07:21:41;32.00;;;12.80;;
21170;SDS011;10743;52.160;20.910;2023-12-04T07:24:08;31.83;;;13.47;;
21170;SDS011;10743;52.160;20.910;2023-12-04T07:26:36;31.47;;;11.47;;
21170;SDS011;10743;52.160;20.910;2023-12-04T07:29:03;25.33;;;11.23;;
21170;SDS011;10743;52.160;20.910;2023-12-04T07:31:30;28.67;;;11.37;;
21170;SDS011;10743;52.160;20.910;2023-12-04T07:33:57;27.40;;;9.93;;
21170;SDS011;10743;52.160;20.910;2023-12-04T07:36:27;20.33;;;10.47;;
21170;SDS011;10743;52.160;20.910;2023-12-04T07:38:54;25.97;;;10.70;;
21170;SDS011;10743;52.160;20.910;2023-12-04T07:41:21;31.33;;;11.73;;
21170;SDS011;10743;52.160;20.910;2023-12-04T07:43:48;24.17;;;10.77;;
21170;SDS011;10743;52.160;20.910;2023-12-04T07:46:15;27.93;;;11.03;;
21170;SDS011;10743;52.160;20.910;2023-12-04T07:48:43;26.67;;;10.90;;
21170;SDS011;10743;52.160;20.910;2023-12-04T07:51:10;28.13;;;11.47;;
21170;SDS011;10743;52.160;20.910;2023-12-04T07:53:37;23.00;;;10.27;;
21170;SDS011;10743;52.160;20.910;2023-12-04T07:56:04;26.97;;;9.87;;
21170;SDS011;10743;52.160;20.910;2023-12-04T07:58:32;25.17;;;10.90;;
21170;SDS011;10743;52.160;20.910;2023-12-04T08:00:59;23.90;;;10.77;;
21170;SDS011;10743;52.160;20.910;2023-12-04T08:03:26;30.07;;;10.73;;
21170;SDS011;10743;52.160;20.910;2023-12-04T08:05:54;26.40;;;11.70;;
21170;SDS011;10743;52.160;20.910;2023-12-04T08:08:21;28.33;;;11.27;;
21170;SDS011;10743;52.160;20.910;2023-12-04T08:10:48;26.53;;;10.07;;
21170;SDS011;10743;52.160;20.910;2023-12-04T08:13:15;30.27;;;11.13;;
21170;SDS011;10743;52.160;20.910;2023-12-04T08:15:43;29.33;;;11.53;;
21170;SDS011;10743;52.160;20.910;2023-12-04T08:18:11;26.43;;;11.37;;
21170;SDS011;10743;52.160;20.910;2023-12-04T08:20:38;28.77;;;11.73;;
21170;SDS011;10743;52.160;20.910;2023-12-04T08:23:07;23.50;;;10.67;;
21170;SDS011;10743;52.160;20.910;2023-12-04T08:25:35;26.47;;;10.57;;
21170;SDS011;10743;52.160;20.910;2023-12-04T08:28:06;25.63;;;11.03;;
21170;SDS011;10743;52.160;20.910;2023-12-04T08:30:35;25.13;;;10.47;;
21170;SDS011;10743;52.160;20.910;2023-12-04T08:33:03;25.27;;;11.93;;
21170;SDS011;10743;52.160;20.910;2023-12-04T08:35:31;28.00;;;12.50;;
21170;SDS011;10743;52.160;20.910;2023-12-04T08:37:58;32.30;;;14.70;;
21170;SDS011;10743;52.160;20.910;2023-12-04T08:40:25;20.57;;;11.00;;
21170;SDS011;10743;52.160;20.910;2023-12-04T08:42:52;32.20;;;15.33;;
21170;SDS011;10743;52.160;20.910;2023-12-04T08:45:20;25.87;;;12.03;;
21170;SDS011;10743;52.160;20.910;2023-12-04T08:47:47;29.70;;;13.93;;
21170;SDS011;10743;52.160;20.910;2023-12-04T08:50:15;20.97;;;10.17;;
21170;SDS011;10743;52.160;20.910;2023-12-04T08:52:43;22.87;;;11.87;;
21170;SDS011;10743;52.160;20.910;2023-12-04T08:55:11;23.73;;;12.67;;
21170;SDS011;10743;52.160;20.910;2023-12-04T08:57:38;30.53;;;13.80;;
21170;SDS011;10743;52.160;20.910;2023-12-04T09:00:05;28.07;;;13.13;;
21170;SDS011;10743;52.160;20.910;2023-12-04T09:02:34;36.20;;;17.23;;
21170;SDS011;10743;52.160;20.910;2023-12-04T09:05:11;50.50;;;21.53;;
21170;SDS011;10743;52.160;20.910;2023-12-04T09:07:39;24.77;;;11.03;;
21170;SDS011;10743;52.160;20.910;2023-12-04T09:10:26;24.10;;;11.37;;
21170;SDS011;10743;52.160;20.910;2023-12-04T09:13:14;25.23;;;11.93;;
21170;SDS011;10743;52.160;20.910;2023-12-04T09:15:41;31.27;;;12.20;;
21170;SDS011;10743;52.160;20.910;2023-12-04T09:18:08;23.10;;;10.10;;
21170;SDS011;10743;52.160;20.910;2023-12-04T09:20:36;29.73;;;11.40;;
21170;SDS011;10743;52.160;20.910;2023-12-04T09:23:03;28.40;;;11.83;;
21170;SDS011;10743;52.160;20.910;2023-12-04T09:25:35;25.97;;;10.23;;
21170;SDS011;10743;52.160;20.910;2023-12-04T09:28:03;22.93;;;9.83;;
21170;SDS011;10743;52.160;20.910;2023-12-04T09:30:30;30.33;;;12.07;;
21170;SDS011;10743;52.160;20.910;2023-12-04T09:32:57;25.53;;;10.30;;
21170;SDS011;10743;52.160;20.910;2023-12-04T09:35:24;30.00;;;12.97;;
21170;SDS011;10743;52.160;20.910;2023-12-04T09:37:51;26.50;;;12.10;;
21170;SDS011;10743;52.160;20.910;2023-12-04T09:40:18;29.37;;;11.33;;
21170;SDS011;10743;52.160;20.910;2023-12-04T09:42:46;28.20;;;11.80;;
21170;SDS011;10743;52.160;20.910;2023-12-04T09:45:13;33.47;;;12.47;;
21170;SDS011;10743;52.160;20.910;2023-12-04T09:47:42;25.37;;;11.13;;
21170;SDS011;10743;52.160;20.910;2023-12-04T09:50:09;25.10;;;10.87;;
21170;SDS011;10743;52.160;20.910;2023-12-04T09:52:38;27.77;;;11.53;;
21170;SDS011;10743;52.160;20.910;2023-12-04T09:55:05;25.97;;;11.67;;
21170;SDS011;10743;52.160;20.910;2023-12-04T09:57:33;24.80;;;10.70;;
21170;SDS011;10743;52.160;20.910;2023-12-04T10:00:02;32.37;;;12.13;;
21170;SDS011;10743;52.160;20.910;2023-12-04T10:02:36;30.60;;;12.40;;
21170;SDS011;10743;52.160;20.910;2023-12-04T10:05:04;24.50;;;10.27;;
21170;SDS011;10743;52.160;20.910;2023-12-04T10:07:32;25.03;;;12.20;;
21170;SDS011;10743;52.160;20.910;2023-12-04T10:10:01;22.97;;;10.37;;
21170;SDS011;10743;52.160;20.910;2023-12-04T10:12:32;27.83;;;11.03;;
21170;SDS011;10743;52.160;20.910;2023-12-04T10:15:03;39.20;;;14.03;;
21170;SDS011;10743;52.160;20.910;2023-12-04T10:17:37;36.27;;;11.97;;
21170;SDS011;10743;52.160;20.910;2023-12-04T10:20:10;35.23;;;15.67;;
21170;SDS011;10743;52.160;20.910;2023-12-04T10:23:00;26.70;;;12.13;;
21170;SDS011;10743;52.160;20.910;2023-12-04T10:25:28;29.40;;;12.17;;
21170;SDS011;10743;52.160;20.910;2023-12-04T10:28:07;36.67;;;11.57;;
21170;SDS011;10743;52.160;20.910;2023-12-04T10:30:39;28.27;;;12.07;;
21170;SDS011;10743;52.160;20.910;2023-12-04T10:33:06;28.67;;;10.77;;
21170;SDS011;10743;52.160;20.910;2023-12-04T10:35:35;34.97;;;15.57;;
21170;SDS011;10743;52.160;20.910;2023-12-04T10:38:03;34.03;;;13.53;;
21170;SDS011;10743;52.160;20.910;2023-12-04T10:40:33;37.67;;;12.60;;
21170;SDS011;10743;52.160;20.910;2023-12-04T10:43:09;34.77;;;13.10;;
21170;SDS011;10743;52.160;20.910;2023-12-04T10:45:47;44.43;;;17.30;;
21170;SDS011;10743;52.160;20.910;2023-12-04T10:48:16;48.53;;;17.13;;
21170;SDS011;10743;52.160;20.910;2023-12-04T10:50:46;53.53;;;16.37;;
21170;SDS011;10743;52.160;20.910;2023-12-04T10:53:16;43.10;;;15.70;;
21170;SDS011;10743;52.160;20.910;2023-12-04T10:55:44;45.80;;;17.73;;
21170;SDS011;10743;52.160;20.910;2023-12-04T10:58:13;40.43;;;17.10;;
21170;SDS011;10743;52.160;20.910;2023-12-04T11:00:45;40.93;;;16.53;;
21170;SDS011;10743;52.160;20.910;2023-12-04T11:03:21;41.33;;;16.40;;
21170;SDS011;10743;52.160;20.910;2023-12-04T11:06:00;48.63;;;17.47;;
21170;SDS011;10743;52.160;20.910;2023-12-04T11:08:32;32.10;;;13.37;;
21170;SDS011;10743;52.160;20.910;2023-12-04T11:11:02;40.77;;;16.40;;
21170;SDS011;10743;52.160;20.910;2023-12-04T11:13:40;33.97;;;14.03;;
21170;SDS011;10743;52.160;20.910;2023-12-04T11:16:18;43.77;;;16.53;;
21170;SDS011;10743;52.160;20.910;2023-12-04T11:22:04;40.93;;;16.33;;
21170;SDS011;10743;52.160;20.910;2023-12-04T11:24:33;30.80;;;12.93;;
21170;SDS011;10743;52.160;20.910;2023-12-04T11:27:02;49.00;;;18.07;;
21170;SDS011;10743;52.160;20.910;2023-12-04T11:29:30;35.53;;;14.57;;
21170;SDS011;10743;52.160;20.910;2023-12-04T11:31:58;38.23;;;16.33;;
21170;SDS011;10743;52.160;20.910;2023-12-04T11:34:25;34.03;;;13.77;;
21170;SDS011;10743;52.160;20.910;2023-12-04T11:36:53;41.47;;;14.83;;
21170;SDS011;10743;52.160;20.910;2023-12-04T11:39:22;53.10;;;16.97;;
21170;SDS011;10743;52.160;20.910;2023-12-04T11:41:52;53.40;;;18.60;;
21170;SDS011;10743;52.160;20.910;2023-12-04T11:44:19;39.30;;;15.70;;
21170;SDS011;10743;52.160;20.910;2023-12-04T11:46:56;48.13;;;18.43;;
21170;SDS011;10743;52.160;20.910;2023-12-04T11:49:31;52.23;;;18.53;;
21170;SDS011;10743;52.160;20.910;2023-12-04T11:51:59;51.17;;;19.53;;
21170;SDS011;10743;52.160;20.910;2023-12-04T11:54:28;29.93;;;12.27;;
21170;SDS011;10743;52.160;20.910;2023-12-04T11:59:38;33.40;;;12.80;;
21170;SDS011;10743;52.160;20.910;2023-12-04T12:02:11;31.73;;;13.03;;
21170;SDS011;10743;52.160;20.910;2023-12-04T12:04:40;31.30;;;13.47;;
21170;SDS011;10743;52.160;20.910;2023-12-04T12:07:07;33.40;;;13.60;;
21170;SDS011;10743;52.160;20.910;2023-12-04T12:09:35;33.13;;;13.37;;
21170;SDS011;10743;52.160;20.910;2023-12-04T12:12:03;51.10;;;18.17;;
21170;SDS011;10743;52.160;20.910;2023-12-04T12:14:31;70.53;;;25.80;;
21170;SDS011;10743;52.160;20.910;2023-12-04T12:16:59;64.50;;;24.80;;
21170;SDS011;10743;52.160;20.910;2023-12-04T12:19:27;55.30;;;21.13;;
21170;SDS011;10743;52.160;20.910;2023-12-04T12:21:54;37.63;;;15.73;;
21170;SDS011;10743;52.160;20.910;2023-12-04T12:24:22;32.87;;;12.57;;
21170;SDS011;10743;52.160;20.910;2023-12-04T12:26:53;30.33;;;11.93;;
21170;SDS011;10743;52.160;20.910;2023-12-04T12:29:21;29.47;;;11.83;;
21170;SDS011;10743;52.160;20.910;2023-12-04T12:31:49;32.20;;;12.00;;
21170;SDS011;10743;52.160;20.910;2023-12-04T12:34:17;31.47;;;11.17;;
21170;SDS011;10743;52.160;20.910;2023-12-04T12:36:44;30.90;;;11.10;;
21170;SDS011;10743;52.160;20.910;2023-12-04T12:39:12;29.20;;;10.93;;
21170;SDS011;10743;52.160;20.910;2023-12-04T12:41:45;24.10;;;10.40;;
21170;SDS011;10743;52.160;20.910;2023-12-04T12:44:17;31.23;;;11.07;;
21170;SDS011;10743;52.160;20.910;2023-12-04T12:46:48;33.67;;;13.77;;
21170;SDS011;10743;52.160;20.910;2023-12-04T12:49:19;33.03;;;12.00;;
21170;SDS011;10743;52.160;20.910;2023-12-04T12:52:01;31.23;;;12.47;;
21170;SDS011;10743;52.160;20.910;2023-12-04T12:54:31;28.67;;;11.17;;
21170;SDS011;10743;52.160;20.910;2023-12-04T12:56:59;29.83;;;11.23;;
21170;SDS011;10743;52.160;20.910;2023-12-04T12:59:28;30.53;;;12.33;;
21170;SDS011;10743;52.160;20.910;2023-12-04T13:01:56;24.57;;;10.20;;
21170;SDS011;10743;52.160;20.910;2023-12-04T13:04:33;32.37;;;12.07;;
21170;SDS011;10743;52.160;20.910;2023-12-04T13:07:07;35.53;;;15.27;;
21170;SDS011;10743;52.160;20.910;2023-12-04T13:09:35;32.97;;;15.00;;
21170;SDS011;10743;52.160;20.910;2023-12-04T13:12:03;30.67;;;12.17;;
21170;SDS011;10743;52.160;20.910;2023-12-04T13:14:33;34.40;;;15.50;;
21170;SDS011;10743;52.160;20.910;2023-12-04T13:17:02;30.93;;;14.97;;
21170;SDS011;10743;52.160;20.910;2023-12-04T13:19:30;33.13;;;12.97;;
21170;SDS011;10743;52.160;20.910;2023-12-04T13:22:01;32.80;;;13.77;;
21170;SDS011;10743;52.160;20.910;2023-12-04T13:24:31;37.27;;;13.53;;
21170;SDS011;10743;52.160;20.910;2023-12-04T13:26:58;37.43;;;15.97;;
21170;SDS011;10743;52.160;20.910;2023-12-04T13:29:25;48.53;;;17.77;;
21170;SDS011;10743;52.160;20.910;2023-12-04T13:31:52;60.50;;;23.37;;
21170;SDS011;10743;52.160;20.910;2023-12-04T13:34:19;48.63;;;20.90;;
21170;SDS011;10743;52.160;20.910;2023-12-04T13:36:46;41.90;;;17.43;;
21170;SDS011;10743;52.160;20.910;2023-12-04T13:39:13;36.90;;;15.53;;
21170;SDS011;10743;52.160;20.910;2023-12-04T13:41:44;40.17;;;16.03;;
21170;SDS011;10743;52.160;20.910;2023-12-04T13:44:31;34.73;;;13.33;;
21170;SDS011;10743;52.160;20.910;2023-12-04T13:46:59;35.33;;;11.83;;
21170;SDS011;10743;52.160;20.910;2023-12-04T13:49:26;38.03;;;15.37;;
21170;SDS011;10743;52.160;20.910;2023-12-04T13:51:54;32.37;;;14.33;;
21170;SDS011;10743;52.160;20.910;2023-12-04T13:54:21;44.13;;;16.23;;
21170;SDS011;10743;52.160;20.910;2023-12-04T13:56:58;42.37;;;16.73;;
21170;SDS011;10743;52.160;20.910;2023-12-04T13:59:27;41.37;;;16.67;;
21170;SDS011;10743;52.160;20.910;2023-12-04T14:01:55;42.23;;;17.20;;
21170;SDS011;10743;52.160;20.910;2023-12-04T14:04:27;38.27;;;15.67;;
21170;SDS011;10743;52.160;20.910;2023-12-04T14:06:54;48.43;;;17.10;;
21170;SDS011;10743;52.160;20.910;2023-12-04T14:09:26;43.50;;;15.33;;
21170;SDS011;10743;52.160;20.910;2023-12-04T14:11:53;35.27;;;13.93;;
21170;SDS011;10743;52.160;20.910;2023-12-04T14:14:21;42.63;;;16.80;;
21170;SDS011;10743;52.160;20.910;2023-12-04T14:16:48;45.17;;;17.10;;
21170;SDS011;10743;52.160;20.910;2023-12-04T14:19:15;37.37;;;15.10;;
21170;SDS011;10743;52.160;20.910;2023-12-04T14:21:44;46.73;;;17.70;;
21170;SDS011;10743;52.160;20.910;2023-12-04T14:24:11;40.27;;;16.27;;
21170;SDS011;10743;52.160;20.910;2023-12-04T14:26:38;40.53;;;17.07;;